Terminal Aerodrome Forecast
Issued by NWS

Home | Current Version | Previous Version | Text Only | Print | Product List | Glossary On
Versions: 1 2 3 4 5 6 7 8 9 10 11 12 13 14
000
FTUS44 KLZK 302300
TAFLIT
TAF
KLIT 302334Z 3100/3124 09004KT P6SM SCT150 BKN250
     FM311500 13007KT P6SM OVC100=

USA.gov is the U.S. government's official web portal to all federal, state and local government web resources and services.